createdAt,value
2024-02-20T00:02:21.726Z,22.17
2024-02-20T00:04:49.153Z,20.27
2024-02-20T00:07:17.196Z,21.37
2024-02-20T00:09:44.563Z,20.67
2024-02-20T00:12:11.812Z,27.20
2024-02-20T00:14:40.734Z,25.47
2024-02-20T00:17:08.767Z,23.00
2024-02-20T00:19:36.161Z,38.90
2024-02-20T00:22:04.218Z,33.10
2024-02-20T00:24:31.611Z,33.53
2024-02-20T00:26:59.682Z,33.97
2024-02-20T00:29:27.477Z,23.50
2024-02-20T00:31:54.762Z,29.77
2024-02-20T00:34:22.190Z,28.77
2024-02-20T00:36:50.662Z,33.23
2024-02-20T00:39:18.010Z,32.77
2024-02-20T00:41:45.355Z,42.60
2024-02-20T00:44:13.287Z,30.80
2024-02-20T00:46:40.786Z,28.57
2024-02-20T00:49:08.268Z,39.57
2024-02-20T00:51:35.582Z,30.83
2024-02-20T00:54:02.940Z,24.90
2024-02-20T00:56:30.236Z,25.23
2024-02-20T00:58:57.550Z,37.57
2024-02-20T01:01:26.013Z,25.27
2024-02-20T01:03:53.677Z,34.63
2024-02-20T01:06:21.175Z,37.70
2024-02-20T01:08:48.988Z,27.57
2024-02-20T01:11:16.385Z,24.33
2024-02-20T01:13:43.701Z,36.03
2024-02-20T01:16:10.989Z,26.67
2024-02-20T01:18:43.001Z,31.30
2024-02-20T01:21:11.301Z,32.23
2024-02-20T01:23:38.995Z,27.67
2024-02-20T01:26:06.371Z,28.80
2024-02-20T01:28:33.699Z,24.20
2024-02-20T01:31:01.159Z,26.63
2024-02-20T01:33:28.643Z,27.47
2024-02-20T01:35:56.651Z,23.30
2024-02-20T01:38:24.817Z,27.53
2024-02-20T01:40:52.033Z,27.53
2024-02-20T01:43:19.484Z,30.40
2024-02-20T01:45:46.835Z,26.27
2024-02-20T01:48:16.014Z,29.37
2024-02-20T01:50:44.786Z,25.33
2024-02-20T01:53:31.769Z,34.07
2024-02-20T01:56:02.180Z,36.70
2024-02-20T01:58:29.802Z,40.25
2024-02-20T02:00:57.654Z,29.50
2024-02-20T02:03:25.262Z,30.00
2024-02-20T02:05:52.618Z,33.47
2024-02-20T02:08:19.994Z,28.23
2024-02-20T02:10:47.409Z,23.63
2024-02-20T02:13:16.847Z,34.17
2024-02-20T02:15:44.504Z,34.80
2024-02-20T02:18:12.149Z,29.60
2024-02-20T02:20:39.870Z,41.07
2024-02-20T02:23:07.302Z,38.67
2024-02-20T02:25:34.768Z,33.77
2024-02-20T02:28:02.099Z,27.57
2024-02-20T02:30:29.923Z,44.07
2024-02-20T02:32:57.282Z,39.90
2024-02-20T02:35:24.756Z,29.50
2024-02-20T02:37:52.654Z,56.87
2024-02-20T02:40:20.093Z,33.83
2024-02-20T02:42:47.322Z,40.23
2024-02-20T02:45:14.645Z,50.87
2024-02-20T02:47:41.996Z,43.53
2024-02-20T02:50:10.090Z,40.30
2024-02-20T02:52:37.615Z,31.97
2024-02-20T02:55:05.260Z,33.97
2024-02-20T02:57:32.652Z,35.03
2024-02-20T02:59:59.984Z,36.83
2024-02-20T03:02:27.475Z,41.33
2024-02-20T03:04:57.727Z,30.43
2024-02-20T03:07:25.448Z,34.10
2024-02-20T03:09:52.749Z,31.10
2024-02-20T03:12:20.049Z,33.80
2024-02-20T03:14:47.266Z,39.93
2024-02-20T03:17:14.512Z,42.10
2024-02-20T03:19:41.913Z,32.23
2024-02-20T03:22:12.147Z,43.00
2024-02-20T03:24:41.467Z,42.97
2024-02-20T03:27:08.784Z,35.90
2024-02-20T03:29:36.107Z,28.10
2024-02-20T03:32:03.437Z,32.73
2024-02-20T03:34:30.816Z,25.27
2024-02-20T03:36:58.187Z,37.03
2024-02-20T03:39:25.530Z,35.40
2024-02-20T03:41:52.906Z,25.40
2024-02-20T03:44:20.222Z,31.87
2024-02-20T03:46:47.493Z,27.30
2024-02-20T03:49:15.555Z,33.17
2024-02-20T03:51:45.675Z,34.87
2024-02-20T03:54:13.072Z,39.58
2024-02-20T03:56:40.334Z,30.00
2024-02-20T03:59:08.510Z,34.70
2024-02-20T04:01:35.817Z,30.97
2024-02-20T04:04:04.392Z,33.17
2024-02-20T04:06:33.111Z,43.67
2024-02-20T04:09:05.204Z,39.30
2024-02-20T04:11:33.504Z,46.50
2024-02-20T04:14:01.078Z,44.27
2024-02-20T04:16:28.533Z,42.63
2024-02-20T04:18:55.912Z,40.10
2024-02-20T04:21:23.251Z,36.77
2024-02-20T04:23:50.557Z,39.87
2024-02-20T04:26:17.853Z,35.03
2024-02-20T04:28:45.286Z,38.43
2024-02-20T04:31:12.620Z,49.30
2024-02-20T04:33:40.054Z,42.43
2024-02-20T04:36:07.877Z,47.13
2024-02-20T04:38:35.153Z,42.37
2024-02-20T04:41:02.451Z,36.47
2024-02-20T04:43:29.833Z,50.53
2024-02-20T04:45:57.116Z,53.53
2024-02-20T04:48:24.512Z,62.43
2024-02-20T04:50:52.032Z,52.17
2024-02-20T04:53:19.284Z,57.33
2024-02-20T04:55:46.636Z,63.93
2024-02-20T04:58:13.960Z,52.87
2024-02-20T05:00:41.599Z,49.97
2024-02-20T05:03:08.959Z,57.20
2024-02-20T05:05:36.992Z,48.97
2024-02-20T05:08:05.243Z,40.53
2024-02-20T05:10:32.624Z,44.03
2024-02-20T05:13:00.114Z,48.90
2024-02-20T05:15:27.401Z,40.00
2024-02-20T05:17:54.723Z,48.57
2024-02-20T05:20:24.140Z,42.90
2024-02-20T05:22:51.477Z,35.63
2024-02-20T05:25:19.015Z,38.43
2024-02-20T05:27:46.708Z,39.20
2024-02-20T05:30:14.564Z,35.83
2024-02-20T05:32:41.917Z,36.33
2024-02-20T05:35:09.634Z,39.33
2024-02-20T05:37:37.061Z,32.13
2024-02-20T05:40:05.459Z,36.83
2024-02-20T05:42:32.847Z,44.17
2024-02-20T05:45:00.183Z,35.20
2024-02-20T05:47:27.606Z,33.53
2024-02-20T05:49:55.009Z,33.97
2024-02-20T05:52:22.951Z,36.27
2024-02-20T05:54:50.366Z,48.97
2024-02-20T05:57:17.765Z,44.57
2024-02-20T05:59:45.054Z,40.13
2024-02-20T06:02:12.673Z,37.50
2024-02-20T06:04:40.903Z,38.60
2024-02-20T06:07:08.656Z,38.77
2024-02-20T06:09:38.666Z,36.23
2024-02-20T06:12:10.846Z,34.30
2024-02-20T06:14:38.674Z,43.55
2024-02-20T06:17:07.221Z,36.20
2024-02-20T06:19:34.681Z,38.60
2024-02-20T06:22:02.208Z,33.43
2024-02-20T06:24:29.752Z,41.53
2024-02-20T06:26:57.035Z,35.30
2024-02-20T06:29:24.409Z,26.33
2024-02-20T06:31:53.737Z,35.97
2024-02-20T06:34:21.277Z,37.20
2024-02-20T06:36:48.572Z,36.97
2024-02-20T06:39:15.850Z,42.50
2024-02-20T06:41:43.172Z,42.60
2024-02-20T06:44:10.633Z,36.73
2024-02-20T06:46:41.557Z,42.20
2024-02-20T06:49:09.036Z,41.50
2024-02-20T06:51:36.423Z,44.17
2024-02-20T06:54:07.110Z,40.00
2024-02-20T06:56:34.402Z,40.50
2024-02-20T06:59:01.846Z,33.53
2024-02-20T07:01:29.391Z,33.00
2024-02-20T07:03:56.848Z,30.50
2024-02-20T07:06:25.728Z,25.57
2024-02-20T07:08:53.692Z,29.77
2024-02-20T07:11:22.068Z,34.90
2024-02-20T07:13:50.562Z,30.77
2024-02-20T07:16:18.528Z,26.27
2024-02-20T07:18:45.997Z,29.80
2024-02-20T07:21:13.326Z,27.97
2024-02-20T07:23:40.536Z,30.90
2024-02-20T07:26:07.808Z,16.00
2024-02-20T07:28:35.204Z,26.70
2024-02-20T07:31:02.523Z,27.83
2024-02-20T07:33:36.539Z,24.07
2024-02-20T07:36:05.683Z,21.30
2024-02-20T07:38:33.068Z,21.60
2024-02-20T07:41:04.739Z,30.57
2024-02-20T07:43:35.657Z,25.93
2024-02-20T07:46:05.396Z,21.30
2024-02-20T07:48:32.991Z,21.13
2024-02-20T07:51:00.612Z,24.20
2024-02-20T07:53:27.981Z,26.13
2024-02-20T07:55:57.537Z,24.27
2024-02-20T07:58:34.043Z,23.45
2024-02-20T08:01:14.183Z,24.97
2024-02-20T08:03:41.473Z,24.07
2024-02-20T08:06:09.437Z,19.90
2024-02-20T08:08:55.489Z,25.53
2024-02-20T08:11:22.844Z,26.30
2024-02-20T08:13:50.816Z,17.83
2024-02-20T08:16:18.271Z,22.90
2024-02-20T08:18:45.831Z,21.53
2024-02-20T08:21:13.252Z,25.70
2024-02-20T08:23:42.740Z,24.97
2024-02-20T08:26:10.489Z,17.67
2024-02-20T08:28:41.228Z,16.13
2024-02-20T08:31:09.909Z,21.83
2024-02-20T08:33:37.812Z,17.97
2024-02-20T08:36:05.640Z,26.13
2024-02-20T08:38:32.888Z,27.17
2024-02-20T08:41:00.244Z,18.77
2024-02-20T08:43:27.548Z,19.47
2024-02-20T08:45:54.946Z,25.13
2024-02-20T08:48:22.332Z,20.03
2024-02-20T08:50:49.622Z,15.17
2024-02-20T08:53:16.926Z,14.77
2024-02-20T08:55:44.318Z,20.07
2024-02-20T08:58:11.962Z,20.07
2024-02-20T09:00:39.230Z,12.07
2024-02-20T09:03:06.698Z,17.97
2024-02-20T09:05:37.295Z,22.07
2024-02-20T09:08:05.558Z,17.15
2024-02-20T09:10:35.613Z,14.63
2024-02-20T09:13:02.944Z,17.40
2024-02-20T09:15:30.262Z,14.57
2024-02-20T09:17:57.741Z,21.53
2024-02-20T09:20:25.230Z,18.17
2024-02-20T09:22:52.720Z,15.53
2024-02-20T09:25:20.122Z,21.70
2024-02-20T09:27:48.019Z,15.83
2024-02-20T09:30:15.561Z,12.60
2024-02-20T09:32:44.692Z,14.90
2024-02-20T09:35:12.444Z,13.40
2024-02-20T09:37:40.004Z,13.63
2024-02-20T09:40:08.071Z,10.67
2024-02-20T09:42:45.444Z,13.33
2024-02-20T09:45:21.389Z,17.27
2024-02-20T09:47:54.156Z,22.93
2024-02-20T09:50:25.684Z,10.60
2024-02-20T09:52:55.599Z,13.67
2024-02-20T09:55:28.240Z,13.35
2024-02-20T09:57:59.819Z,13.10
2024-02-20T10:00:28.678Z,13.27
2024-02-20T10:02:57.831Z,13.13
2024-02-20T10:05:27.691Z,12.57
2024-02-20T10:08:00.624Z,15.40
2024-02-20T10:10:29.604Z,10.73
2024-02-20T10:13:01.120Z,11.30
2024-02-20T10:15:28.880Z,7.93
2024-02-20T10:18:03.532Z,12.90
2024-02-20T10:20:32.396Z,17.10
2024-02-20T10:23:14.945Z,11.30
2024-02-20T10:25:42.441Z,11.50
2024-02-20T10:28:10.000Z,11.20
2024-02-20T10:30:37.694Z,10.97
2024-02-20T10:33:05.839Z,13.30
2024-02-20T10:35:33.540Z,10.43
2024-02-20T10:38:02.750Z,9.93
2024-02-20T10:40:31.970Z,7.67
2024-02-20T10:43:00.191Z,7.10
2024-02-20T10:45:29.202Z,8.37
2024-02-20T10:47:59.521Z,8.40
2024-02-20T10:50:27.927Z,12.63
2024-02-20T10:52:55.861Z,11.87
2024-02-20T10:55:32.377Z,15.53
2024-02-20T10:58:05.477Z,10.63
2024-02-20T11:00:38.282Z,11.67
2024-02-20T11:03:08.929Z,9.37
2024-02-20T11:05:36.468Z,9.97
2024-02-20T11:08:09.769Z,7.20
2024-02-20T11:10:38.411Z,6.30
2024-02-20T11:13:29.147Z,6.10
2024-02-20T11:15:56.598Z,7.03
2024-02-20T11:18:26.178Z,9.60
2024-02-20T11:21:09.047Z,8.10
2024-02-20T11:23:37.206Z,5.77
2024-02-20T11:26:11.649Z,6.70
2024-02-20T11:28:40.421Z,8.17
2024-02-20T11:31:08.659Z,8.90
2024-02-20T11:33:37.056Z,8.87
2024-02-20T11:36:08.255Z,6.80
2024-02-20T11:41:09.269Z,7.30
2024-02-20T11:43:37.295Z,5.90
2024-02-20T11:46:04.843Z,11.37
2024-02-20T11:48:33.309Z,5.97
2024-02-20T11:51:02.367Z,6.40
2024-02-20T11:53:30.067Z,10.60
2024-02-20T11:55:58.004Z,10.43
2024-02-20T11:58:28.625Z,7.57
2024-02-20T12:01:07.481Z,11.53
2024-02-20T12:03:38.028Z,6.27
2024-02-20T12:06:11.592Z,6.78
2024-02-20T12:08:44.955Z,8.50
2024-02-20T12:11:21.644Z,10.80
2024-02-20T12:13:54.027Z,7.40
2024-02-20T12:16:28.781Z,10.57
2024-02-20T12:19:03.725Z,14.33
2024-02-20T12:21:40.086Z,7.03
2024-02-20T12:24:12.217Z,6.87
2024-02-20T12:26:39.930Z,4.67
2024-02-20T12:29:07.570Z,6.63
2024-02-20T12:31:35.866Z,7.97
2024-02-20T12:34:05.930Z,14.83
2024-02-20T12:36:33.572Z,8.52
2024-02-20T12:39:02.681Z,5.57
2024-02-20T12:41:31.257Z,4.93
2024-02-20T12:43:58.706Z,8.10
2024-02-20T12:51:34.506Z,3.97
2024-02-20T12:54:01.765Z,6.00
2024-02-20T12:56:30.055Z,3.70
2024-02-20T12:58:57.668Z,3.67
2024-02-20T13:01:25.113Z,5.37
2024-02-20T13:04:11.272Z,6.23
2024-02-20T13:06:38.726Z,6.40
2024-02-20T13:09:06.491Z,5.40
2024-02-20T13:11:35.271Z,4.60
2024-02-20T13:14:03.922Z,5.23
2024-02-20T13:16:31.273Z,4.73
2024-02-20T13:18:58.723Z,6.33
2024-02-20T13:21:26.292Z,6.87
2024-02-20T13:23:53.865Z,8.10
2024-02-20T13:26:21.312Z,6.70
2024-02-20T13:28:48.597Z,6.70
2024-02-20T13:31:16.703Z,11.53
2024-02-20T13:33:44.134Z,11.53
2024-02-20T13:36:11.659Z,7.70
2024-02-20T13:38:41.894Z,6.37
2024-02-20T13:41:11.239Z,5.25
2024-02-20T13:43:42.160Z,6.47
2024-02-20T13:48:38.166Z,5.17
2024-02-20T13:51:05.828Z,9.87
2024-02-20T13:53:33.150Z,5.20
2024-02-20T13:56:00.523Z,9.30
2024-02-20T13:58:28.724Z,6.93
2024-02-20T14:00:56.217Z,8.53
2024-02-20T14:03:26.129Z,11.23
2024-02-20T14:05:53.895Z,6.68
2024-02-20T14:08:39.907Z,6.67
2024-02-20T14:11:09.476Z,5.97
2024-02-20T14:13:36.924Z,8.40
2024-02-20T14:16:04.610Z,9.13
2024-02-20T14:18:31.944Z,13.33
2024-02-20T14:21:00.801Z,9.80
2024-02-20T14:23:28.116Z,10.77
2024-02-20T14:25:55.497Z,10.83
2024-02-20T14:28:23.012Z,7.33
2024-02-20T14:30:57.914Z,11.03
2024-02-20T14:33:30.205Z,16.40
2024-02-20T14:35:57.732Z,12.30
2024-02-20T14:38:25.106Z,12.50
2024-02-20T14:40:52.690Z,10.60
2024-02-20T14:43:21.316Z,16.67
2024-02-20T14:45:49.593Z,15.13
2024-02-20T14:48:17.873Z,11.60
2024-02-20T14:50:45.365Z,12.37
2024-02-20T14:53:13.330Z,14.03
2024-02-20T14:55:40.753Z,8.47
2024-02-20T14:58:08.278Z,9.03
2024-02-20T15:00:35.640Z,16.03
2024-02-20T15:03:03.849Z,12.30
2024-02-20T15:05:31.221Z,9.90
2024-02-20T15:07:58.763Z,9.67
2024-02-20T15:10:29.779Z,15.80
2024-02-20T15:13:16.256Z,17.40
2024-02-20T15:15:43.659Z,12.30
2024-02-20T15:18:11.124Z,13.53
2024-02-20T15:20:41.614Z,17.47
2024-02-20T15:23:10.393Z,14.10
2024-02-20T15:25:38.468Z,15.30
2024-02-20T15:28:06.118Z,12.17
2024-02-20T15:30:33.432Z,11.83
2024-02-20T15:33:01.120Z,16.00
2024-02-20T15:35:30.070Z,15.33
2024-02-20T15:37:57.978Z,12.77
2024-02-20T15:40:25.353Z,14.03
2024-02-20T15:42:55.662Z,15.90
2024-02-20T15:45:23.078Z,14.40
2024-02-20T15:47:50.443Z,14.17
2024-02-20T15:50:17.934Z,16.73
2024-02-20T15:52:45.380Z,15.87
2024-02-20T15:55:16.139Z,12.03
2024-02-20T15:57:43.517Z,13.50
2024-02-20T16:00:13.141Z,14.93
2024-02-20T16:02:43.265Z,11.17
2024-02-20T16:05:29.288Z,15.60
2024-02-20T16:07:58.082Z,11.10
2024-02-20T16:10:44.321Z,11.30
2024-02-20T16:13:11.794Z,13.03
2024-02-20T16:15:39.168Z,17.60
2024-02-20T16:18:07.229Z,14.00
2024-02-20T16:20:34.518Z,14.60
2024-02-20T16:23:03.068Z,14.83
2024-02-20T16:25:30.667Z,14.23
2024-02-20T16:27:58.209Z,17.30
2024-02-20T16:30:25.497Z,15.10
2024-02-20T16:32:52.803Z,12.33
2024-02-20T16:35:20.209Z,15.93
2024-02-20T16:37:47.570Z,17.77
2024-02-20T16:40:17.322Z,15.40
2024-02-20T16:42:46.232Z,15.57
2024-02-20T16:45:13.580Z,13.60
2024-02-20T16:47:42.135Z,16.47
2024-02-20T16:50:09.600Z,21.20
2024-02-20T16:52:37.034Z,12.37
2024-02-20T16:55:04.960Z,17.57
2024-02-20T16:57:32.402Z,18.50
2024-02-20T16:59:59.773Z,23.03
2024-02-20T17:02:27.656Z,15.33
2024-02-20T17:04:55.053Z,15.83
2024-02-20T17:07:22.582Z,17.33
2024-02-20T17:09:54.987Z,17.63
2024-02-20T17:12:22.349Z,15.63
2024-02-20T17:14:49.741Z,19.40
2024-02-20T17:17:17.095Z,21.00
2024-02-20T17:19:46.612Z,18.00
2024-02-20T17:22:13.986Z,16.77
2024-02-20T17:24:41.404Z,21.77
2024-02-20T17:27:09.448Z,15.57
2024-02-20T17:29:38.521Z,21.40
2024-02-20T17:32:06.965Z,18.67
2024-02-20T17:34:34.832Z,19.17
2024-02-20T17:37:04.410Z,19.17
2024-02-20T17:39:32.101Z,17.57
2024-02-20T17:41:59.454Z,16.70
2024-02-20T17:44:26.822Z,22.70
2024-02-20T17:46:55.280Z,16.77
2024-02-20T17:49:22.916Z,18.20
2024-02-20T17:51:51.514Z,16.03
2024-02-20T17:54:18.971Z,19.40
2024-02-20T17:56:46.330Z,19.67
2024-02-20T17:59:13.679Z,19.90
2024-02-20T18:01:41.037Z,14.27
2024-02-20T18:04:08.488Z,15.70
2024-02-20T18:06:54.560Z,17.47
2024-02-20T18:09:22.409Z,15.47
2024-02-20T18:11:49.892Z,19.40
2024-02-20T18:14:17.227Z,30.83
2024-02-20T18:16:45.671Z,22.10
2024-02-20T18:19:14.350Z,22.37
2024-02-20T18:21:42.261Z,18.93
2024-02-20T18:24:09.668Z,20.53
2024-02-20T18:26:37.064Z,18.23
2024-02-20T18:29:04.419Z,14.30
2024-02-20T18:31:31.859Z,19.33
2024-02-20T18:33:59.358Z,14.30
2024-02-20T18:36:27.081Z,15.17
2024-02-20T18:38:54.351Z,20.40
2024-02-20T18:41:22.564Z,15.27
2024-02-20T18:43:50.102Z,19.17
2024-02-20T18:46:17.566Z,19.20
2024-02-20T18:48:45.104Z,16.53
2024-02-20T18:51:12.456Z,18.40
2024-02-20T18:53:40.446Z,13.93
2024-02-20T18:56:08.486Z,17.67
2024-02-20T18:58:35.832Z,13.57
2024-02-20T19:01:03.337Z,13.83
2024-02-20T19:03:30.817Z,16.17
2024-02-20T19:06:17.639Z,11.47
2024-02-20T19:08:45.361Z,14.80
2024-02-20T19:11:13.206Z,12.47
2024-02-20T19:13:40.820Z,11.67
2024-02-20T19:16:08.314Z,12.10
2024-02-20T19:18:35.620Z,12.70
2024-02-20T19:21:21.752Z,11.33
2024-02-20T19:23:52.332Z,12.67
2024-02-20T19:26:19.990Z,10.48
2024-02-20T19:28:47.703Z,8.73
2024-02-20T19:31:18.417Z,9.93
2024-02-20T19:33:46.852Z,11.77
2024-02-20T19:36:14.650Z,14.23
2024-02-20T19:38:42.609Z,11.43
2024-02-20T19:41:10.445Z,6.23
2024-02-20T19:43:37.828Z,11.17
2024-02-20T19:46:05.209Z,15.07
2024-02-20T19:48:32.801Z,13.30
2024-02-20T19:51:00.223Z,16.03
2024-02-20T19:53:27.591Z,14.20
2024-02-20T19:55:55.035Z,15.23
2024-02-20T19:58:22.566Z,9.70
2024-02-20T20:00:49.905Z,12.90
2024-02-20T20:03:17.264Z,14.10
2024-02-20T20:05:44.747Z,12.23
2024-02-20T20:08:12.274Z,14.13
2024-02-20T20:10:39.626Z,13.40
2024-02-20T20:13:07.050Z,13.77
2024-02-20T20:15:38.003Z,12.87
2024-02-20T20:18:06.096Z,12.17
2024-02-20T20:20:33.498Z,13.20
2024-02-20T20:23:00.858Z,13.63
2024-02-20T20:25:28.152Z,15.67
2024-02-20T20:27:55.414Z,19.93
2024-02-20T20:30:24.351Z,14.73
2024-02-20T20:32:53.279Z,18.97
2024-02-20T20:35:21.607Z,18.00
2024-02-20T20:37:53.650Z,17.27
2024-02-20T20:40:21.830Z,20.20
2024-02-20T20:42:50.242Z,16.23
2024-02-20T20:45:18.272Z,17.77
2024-02-20T20:47:45.528Z,13.77
2024-02-20T20:50:12.910Z,21.30
2024-02-20T20:52:40.279Z,14.50
2024-02-20T20:55:08.332Z,20.80
2024-02-20T20:57:35.653Z,17.30
2024-02-20T21:00:05.220Z,15.90
2024-02-20T21:02:32.881Z,18.50
2024-02-20T21:05:00.343Z,14.63
2024-02-20T21:07:46.773Z,9.93
2024-02-20T21:10:14.578Z,13.93
2024-02-20T21:12:41.983Z,13.97
2024-02-20T21:15:13.842Z,9.00
2024-02-20T21:17:41.354Z,30.93
2024-02-20T21:20:09.075Z,15.87
2024-02-20T21:22:36.624Z,10.77
2024-02-20T21:25:04.341Z,12.43
2024-02-20T21:27:31.746Z,14.77
2024-02-20T21:29:58.960Z,11.57
2024-02-20T21:32:26.495Z,12.00
2024-02-20T21:34:53.882Z,11.27
2024-02-20T21:37:21.328Z,9.83
2024-02-20T21:39:48.724Z,12.30
2024-02-20T21:42:16.114Z,17.13
2024-02-20T21:44:43.428Z,14.80
2024-02-20T21:47:10.693Z,12.70
2024-02-20T21:49:38.046Z,14.20
2024-02-20T21:52:05.385Z,18.17
2024-02-20T21:54:32.722Z,17.37
2024-02-20T21:56:59.973Z,21.40
2024-02-20T21:59:27.392Z,17.77
2024-02-20T22:01:54.681Z,18.93
2024-02-20T22:04:22.143Z,13.97
2024-02-20T22:06:49.531Z,17.43
2024-02-20T22:09:16.857Z,19.97
2024-02-20T22:11:44.386Z,19.50
2024-02-20T22:14:12.047Z,18.67
2024-02-20T22:16:40.278Z,18.57
2024-02-20T22:19:10.012Z,21.83
2024-02-20T22:21:37.426Z,24.13
2024-02-20T22:24:06.477Z,18.87
2024-02-20T22:26:34.196Z,22.20
2024-02-20T22:29:01.662Z,25.40
2024-02-20T22:31:29.030Z,24.27
2024-02-20T22:33:56.469Z,20.23
2024-02-20T22:36:23.922Z,27.97
2024-02-20T22:38:52.483Z,19.87
2024-02-20T22:41:20.717Z,22.77
2024-02-20T22:43:48.721Z,20.20
2024-02-20T22:46:16.413Z,25.20
2024-02-20T22:48:47.488Z,20.83
2024-02-20T22:51:15.305Z,21.00
2024-02-20T22:53:42.687Z,20.47
2024-02-20T22:56:09.985Z,22.10
2024-02-20T22:58:37.437Z,22.37
2024-02-20T23:01:05.557Z,17.63
2024-02-20T23:03:33.116Z,21.63
2024-02-20T23:06:00.590Z,25.83
2024-02-20T23:08:27.971Z,16.33
2024-02-20T23:10:55.268Z,19.47
2024-02-20T23:17:51.947Z,25.30
2024-02-20T23:20:19.447Z,19.57
2024-02-20T23:22:46.954Z,19.03
2024-02-20T23:25:14.725Z,17.77
2024-02-20T23:27:43.075Z,21.47
2024-02-20T23:30:12.734Z,24.10
2024-02-20T23:32:40.559Z,23.63
2024-02-20T23:35:10.548Z,19.27
2024-02-20T23:37:38.031Z,19.50
2024-02-20T23:40:06.516Z,20.87
2024-02-20T23:42:33.813Z,18.47
2024-02-20T23:45:01.195Z,24.50
2024-02-20T23:47:28.454Z,20.67
2024-02-20T23:49:55.891Z,24.37
2024-02-20T23:52:23.175Z,21.60
2024-02-20T23:54:50.470Z,22.37
2024-02-20T23:57:17.797Z,21.37
2024-02-20T23:59:45.119Z,22.03
